Terminal Aerodrome Forecast
Issued by NWS

Home | Current Version | Previous Version | Text Only | Print | Product List | Glossary On
Versions: 1 2 3 4 5 6 7 8 9 10 11 12 13 14 15 16 17 18 19 20 21 22 23 24 25 26 27 28 29 30
439
FTUS41 KBGM 161123
TAFELM
TAF
KELM 161123Z 1612/1712 14005KT P6SM BKN040 OVC100 WS020/19045KT
     FM161400 17015G23KT P6SM OVC035
     FM161800 19013G23KT 5SM RA BR OVC015
     FM162000 22007KT 3SM RA BR OVC010
     FM170000 26007KT P6SM BKN020
     FM170800 30011G21KT P6SM BKN018=

USA.gov is the U.S. government's official web portal to all federal, state and local government web resources and services.